createdAt,value
2022-08-26T00:01:00.506Z,99864.38
2022-08-26T00:03:48.424Z,99866.31
2022-08-26T00:06:37.404Z,99866.03
2022-08-26T00:09:24.735Z,99872.84
2022-08-26T00:12:05.550Z,99867.28
2022-08-26T00:14:52.326Z,99874.47
2022-08-26T00:17:32.464Z,99866.47
2022-08-26T00:20:22.366Z,99867.69
2022-08-26T00:23:10.316Z,99871.34
2022-08-26T00:25:50.864Z,99864.53
2022-08-26T00:28:38.323Z,99861.75
2022-08-26T00:31:20.815Z,99855.38
2022-08-26T00:34:09.445Z,99871.84
2022-08-26T00:36:56.330Z,99870.69
2022-08-26T00:39:36.402Z,99873.81
2022-08-26T00:42:23.280Z,99861.34
2022-08-26T00:45:11.640Z,99861.34
2022-08-26T00:48:08.307Z,99870.16
2022-08-26T00:50:57.465Z,99870.94
2022-08-26T00:53:52.321Z,99870.53
2022-08-26T00:56:57.811Z,99869.09
2022-08-26T00:59:48.313Z,99870.25
2022-08-26T01:02:28.945Z,99879.44
2022-08-26T01:05:18.375Z,99867.38
2022-08-26T01:07:58.422Z,99869.38
2022-08-26T01:10:45.277Z,99877.81
2022-08-26T01:13:26.392Z,99869.69
2022-08-26T01:16:15.386Z,99864.88
2022-08-26T01:18:56.437Z,99863.31
2022-08-26T01:21:55.266Z,99860.09
2022-08-26T01:24:37.395Z,99858.94
2022-08-26T01:27:27.265Z,99856.88
2022-08-26T01:30:13.400Z,99858.13
2022-08-26T01:33:03.208Z,99856.56
2022-08-26T01:35:44.787Z,99855.31
2022-08-26T01:38:31.560Z,99851.25
2022-08-26T01:41:16.236Z,99846.44
2022-08-26T01:44:07.244Z,99851.25
2022-08-26T01:46:58.222Z,99847.66
2022-08-26T01:49:39.000Z,99838.09
2022-08-26T01:52:31.264Z,99841.72
2022-08-26T01:55:15.339Z,99834.13
2022-08-26T01:58:25.303Z,99834.50
2022-08-26T02:01:13.361Z,99834.88
2022-08-26T02:04:09.284Z,99834.44
2022-08-26T02:06:51.470Z,99836.91
2022-08-26T02:09:41.392Z,99834.44
2022-08-26T02:12:22.350Z,99828.88
2022-08-26T02:15:13.214Z,99836.53
2022-08-26T02:18:00.220Z,99834.09
2022-08-26T02:20:40.335Z,99838.16
2022-08-26T02:23:27.207Z,99832.09
2022-08-26T02:26:17.931Z,99835.66
2022-08-26T02:29:19.220Z,99841.28
2022-08-26T02:32:01.300Z,99838.47
2022-08-26T02:34:48.233Z,99840.06
2022-08-26T02:37:28.333Z,99840.88
2022-08-26T02:40:17.212Z,99834.44
2022-08-26T02:42:57.335Z,99836.41
2022-08-26T02:45:44.185Z,99833.59
2022-08-26T02:48:27.348Z,99831.56
2022-08-26T02:51:14.169Z,99836.66
2022-08-26T02:53:54.324Z,99837.78
2022-08-26T02:56:42.183Z,99833.75
2022-08-26T02:59:24.349Z,99831.34
2022-08-26T03:02:11.385Z,99840.94
2022-08-26T03:04:57.707Z,99835.78
2022-08-26T03:26:14.989Z,99851.25
2022-08-26T03:29:21.988Z,99845.88
2022-08-26T03:32:04.126Z,99841.28
2022-08-26T03:34:50.992Z,99840.34
2022-08-26T03:37:31.275Z,99837.84
2022-08-26T03:40:14.022Z,99840.38
2022-08-26T03:42:54.419Z,99843.81
2022-08-26T03:45:41.980Z,99836.88
2022-08-26T03:48:28.991Z,99845.59
2022-08-26T03:51:11.096Z,99849.50
2022-08-26T03:53:57.995Z,99850.59
2022-08-26T03:56:38.601Z,99850.84
2022-08-26T03:59:26.938Z,99845.69
2022-08-26T04:02:08.439Z,99843.13
2022-08-26T04:04:57.958Z,99847.84
2022-08-26T04:07:38.074Z,99850.53
2022-08-26T04:10:30.980Z,99851.44
2022-08-26T04:13:18.959Z,99849.25
2022-08-26T04:15:59.467Z,99853.34
2022-08-26T04:18:46.851Z,99856.16
2022-08-26T04:21:28.594Z,99857.59
2022-08-26T04:24:15.935Z,99866.34
2022-08-26T04:26:57.357Z,99855.38
2022-08-26T04:29:45.957Z,99868.50
2022-08-26T04:32:28.682Z,99859.81
2022-08-26T04:35:15.901Z,99865.84
2022-08-26T04:37:57.490Z,99864.78
2022-08-26T04:40:43.905Z,99877.22
2022-08-26T04:43:30.647Z,99872.91
2022-08-26T04:46:19.070Z,99878.28
2022-08-26T04:48:59.323Z,99875.03
2022-08-26T04:51:45.905Z,99882.25
2022-08-26T04:54:26.417Z,99876.56
2022-08-26T04:57:12.847Z,99881.88
2022-08-26T04:59:59.882Z,99884.38
2022-08-26T05:02:47.885Z,99880.63
2022-08-26T05:05:32.091Z,99881.41
2022-08-26T05:08:18.914Z,99862.41
2022-08-26T05:11:05.852Z,99863.22
2022-08-26T05:13:46.001Z,99870.66
2022-08-26T05:16:33.881Z,99868.13
2022-08-26T05:19:18.728Z,99872.28
2022-08-26T05:22:05.896Z,99865.75
2022-08-26T05:24:59.879Z,99876.69
2022-08-26T05:27:46.875Z,99875.34
2022-08-26T05:30:26.983Z,99879.59
2022-08-26T05:33:15.852Z,99877.88
2022-08-26T05:35:55.997Z,99878.47
2022-08-26T05:38:44.006Z,99881.13
2022-08-26T05:41:36.606Z,99879.25
2022-08-26T05:44:19.912Z,99886.63
2022-08-26T05:47:00.270Z,99883.88
2022-08-26T05:49:51.255Z,99880.34
2022-08-26T05:52:42.783Z,99883.25
2022-08-26T05:55:23.848Z,99872.66
2022-08-26T05:58:04.257Z,99880.81
2022-08-26T06:00:51.899Z,99880.59
2022-08-26T06:03:35.778Z,99878.00
2022-08-26T06:06:27.469Z,99874.97
2022-08-26T06:09:11.214Z,99882.63
2022-08-26T06:11:57.847Z,99885.56
2022-08-26T06:14:44.814Z,99890.03
2022-08-26T06:17:29.791Z,99897.69
2022-08-26T06:20:17.805Z,99896.72
2022-08-26T06:23:16.737Z,99906.22
2022-08-26T06:26:03.816Z,99912.41
2022-08-26T06:28:45.686Z,99920.28
2022-08-26T06:31:33.852Z,99931.69
2022-08-26T06:34:20.812Z,99925.88
2022-08-26T06:37:12.845Z,99931.22
2022-08-26T06:39:53.002Z,99924.84
2022-08-26T06:42:39.790Z,99933.19
2022-08-26T06:45:19.915Z,99937.13
2022-08-26T06:48:06.773Z,99938.19
2022-08-26T06:50:54.845Z,99945.25
2022-08-26T06:53:36.938Z,99945.75
2022-08-26T06:56:25.821Z,99944.13
2022-08-26T06:59:07.711Z,99945.22
2022-08-26T07:01:56.817Z,99943.53
2022-08-26T07:04:37.176Z,99940.50
2022-08-26T07:07:27.731Z,99939.66
2022-08-26T07:10:15.741Z,99951.72
2022-08-26T07:12:55.878Z,99947.25
2022-08-26T07:15:48.838Z,99943.34
2022-08-26T07:18:44.961Z,99942.22
2022-08-26T07:21:26.511Z,99948.25
2022-08-26T07:24:13.763Z,99944.63
2022-08-26T07:27:05.913Z,99955.03
2022-08-26T07:29:54.791Z,99960.94
2022-08-26T07:32:35.506Z,99958.06
2022-08-26T07:35:22.777Z,99957.41
2022-08-26T07:38:04.098Z,99956.84
2022-08-26T07:40:51.741Z,99963.31
2022-08-26T07:43:35.210Z,99975.78
2022-08-26T07:46:30.326Z,99962.03
2022-08-26T07:49:18.874Z,99968.69
2022-08-26T07:51:59.846Z,99962.50
2022-08-26T07:54:47.759Z,99956.00
2022-08-26T07:57:34.740Z,99948.31
2022-08-26T08:00:16.741Z,99949.59
2022-08-26T08:03:03.763Z,99947.44
2022-08-26T08:05:46.421Z,99952.59
2022-08-26T08:08:33.754Z,99952.91
2022-08-26T08:11:21.727Z,99938.66
2022-08-26T08:14:11.633Z,99940.84
2022-08-26T08:16:58.788Z,99941.31
2022-08-26T08:19:45.689Z,99947.16
2022-08-26T08:22:26.172Z,99946.50
2022-08-26T08:25:13.683Z,99944.59
2022-08-26T08:27:54.303Z,99936.97
2022-08-26T08:30:41.718Z,99940.50
2022-08-26T08:33:22.715Z,99928.81
2022-08-26T08:36:10.671Z,99934.72
2022-08-26T08:39:06.498Z,99937.09
2022-08-26T08:42:06.703Z,99926.19
2022-08-26T08:44:52.135Z,99925.41
2022-08-26T08:47:46.702Z,99929.97
2022-08-26T08:50:30.017Z,99925.28
2022-08-26T08:53:29.744Z,99930.63
2022-08-26T08:56:30.723Z,99933.22
2022-08-26T08:59:32.816Z,99931.16
2022-08-26T09:02:57.766Z,99934.81
2022-08-26T09:05:48.725Z,99931.84
2022-08-26T09:08:42.735Z,99929.25
2022-08-26T09:11:22.881Z,99923.84
2022-08-26T09:14:09.743Z,99929.03
2022-08-26T09:16:51.815Z,99929.50
2022-08-26T09:19:52.733Z,99929.16
2022-08-26T09:22:51.740Z,99923.22
2022-08-26T09:25:45.755Z,99923.13
2022-08-26T09:28:33.678Z,99925.13
2022-08-26T09:31:21.000Z,99922.75
2022-08-26T09:34:24.642Z,99914.41
2022-08-26T09:37:06.798Z,99917.50
2022-08-26T09:39:53.664Z,99920.13
2022-08-26T09:42:33.866Z,99918.28
2022-08-26T09:45:20.714Z,99922.69
2022-08-26T09:48:03.836Z,99927.91
2022-08-26T09:51:02.644Z,99929.06
2022-08-26T09:53:57.978Z,99930.34
2022-08-26T09:56:45.565Z,99923.44
2022-08-26T09:59:44.618Z,99934.69
2022-08-26T10:02:58.156Z,99935.28
2022-08-26T10:05:52.726Z,99936.97
2022-08-26T10:08:49.696Z,99948.28
2022-08-26T10:11:52.624Z,99940.69
2022-08-26T10:14:46.705Z,99936.81
2022-08-26T10:17:39.743Z,99928.50
2022-08-26T10:20:33.678Z,99944.84
2022-08-26T10:23:29.899Z,99938.88
2022-08-26T10:26:34.600Z,99928.91
2022-08-26T10:29:58.619Z,99930.97
2022-08-26T10:33:21.685Z,99920.88
2022-08-26T10:36:28.711Z,99925.84
2022-08-26T10:39:23.577Z,99917.59
2022-08-26T10:42:16.623Z,99917.22
2022-08-26T10:45:06.056Z,99923.47
2022-08-26T10:48:00.640Z,99923.34
2022-08-26T10:50:52.595Z,99918.25
2022-08-26T10:54:13.626Z,99922.69
2022-08-26T10:57:14.648Z,99921.81
2022-08-26T11:00:37.631Z,99916.47
2022-08-26T11:03:23.648Z,99916.47
2022-08-26T11:06:31.685Z,99921.47
2022-08-26T11:09:19.551Z,99916.69
2022-08-26T11:12:10.326Z,99917.84
2022-08-26T11:14:59.218Z,99912.19
2022-08-26T11:18:00.107Z,99905.03
2022-08-26T11:20:52.564Z,99903.34
2022-08-26T11:23:33.690Z,99900.06
2022-08-26T11:26:36.154Z,99898.25
2022-08-26T11:30:08.539Z,99900.84
2022-08-26T11:32:53.893Z,99899.63
2022-08-26T11:35:40.547Z,99899.97
2022-08-26T11:38:28.895Z,99896.19
2022-08-26T11:41:36.500Z,99899.97
2022-08-26T11:44:31.544Z,99900.06
2022-08-26T11:47:11.830Z,99908.22
2022-08-26T11:50:15.565Z,99903.69
2022-08-26T11:53:07.845Z,99896.88
2022-08-26T11:55:55.556Z,99893.84
2022-08-26T11:58:43.606Z,99896.31
2022-08-26T12:01:31.428Z,99889.88
2022-08-26T12:04:21.620Z,99894.00
2022-08-26T12:07:02.644Z,99893.19
2022-08-26T12:10:03.493Z,99879.72
2022-08-26T12:12:51.486Z,99881.47
2022-08-26T12:15:39.572Z,99879.13
2022-08-26T12:18:30.107Z,99875.13
2022-08-26T12:21:34.778Z,99873.47
2022-08-26T12:24:26.292Z,99868.44
2022-08-26T12:27:27.449Z,99866.19
2022-08-26T12:30:17.979Z,99871.41
2022-08-26T12:33:22.817Z,99868.44
2022-08-26T12:36:05.034Z,99863.09
2022-08-26T12:38:52.483Z,99867.09
2022-08-26T12:41:48.622Z,99865.72
2022-08-26T12:44:38.456Z,99860.91
2022-08-26T12:47:43.135Z,99855.44
2022-08-26T12:50:35.451Z,99853.09
2022-08-26T12:53:15.666Z,99847.97
2022-08-26T12:56:09.424Z,99852.03
2022-08-26T12:58:56.430Z,99848.72
2022-08-26T13:01:51.602Z,99850.97
2022-08-26T13:04:46.220Z,99856.25
2022-08-26T13:07:33.445Z,99861.91
2022-08-26T13:10:13.563Z,99846.66
2022-08-26T13:13:00.437Z,99846.75
2022-08-26T13:15:40.659Z,99853.66
2022-08-26T13:18:27.422Z,99855.09
2022-08-26T13:21:07.544Z,99851.03
2022-08-26T13:23:55.388Z,99853.56
2022-08-26T13:26:35.796Z,99848.09
2022-08-26T13:29:22.415Z,99854.03
2022-08-26T13:32:04.773Z,99852.19
2022-08-26T13:34:55.418Z,99851.31
2022-08-26T13:37:35.689Z,99861.44
2022-08-26T13:40:22.468Z,99852.50
2022-08-26T13:43:02.848Z,99845.09
2022-08-26T13:45:49.390Z,99859.03
2022-08-26T13:48:29.533Z,99846.22
2022-08-26T13:51:16.350Z,99853.72
2022-08-26T13:53:57.775Z,99844.25
2022-08-26T13:56:44.383Z,99850.16
2022-08-26T13:59:24.558Z,99838.44
2022-08-26T14:02:11.391Z,99834.59
2022-08-26T14:04:58.361Z,99846.84
2022-08-26T14:07:39.239Z,99832.53
2022-08-26T14:10:26.379Z,99835.00
2022-08-26T14:13:07.601Z,99838.13
2022-08-26T14:15:54.418Z,99831.81
2022-08-26T14:18:50.720Z,99831.22
2022-08-26T14:21:38.440Z,99843.66
2022-08-26T14:24:25.364Z,99836.47
2022-08-26T14:27:12.568Z,99839.84
2022-08-26T14:29:52.400Z,99844.72
2022-08-26T14:32:39.356Z,99846.47
2022-08-26T14:35:23.545Z,99849.97
2022-08-26T14:38:10.406Z,99839.13
2022-08-26T14:40:58.411Z,99834.13
2022-08-26T14:43:57.858Z,99844.75
2022-08-26T14:46:48.379Z,99847.69
2022-08-26T14:49:37.334Z,99852.16
2022-08-26T14:52:17.475Z,99850.44
2022-08-26T14:55:04.366Z,99858.16
2022-08-26T14:57:44.428Z,99853.28
2022-08-26T15:00:31.308Z,99864.00
2022-08-26T15:03:12.637Z,99858.19
2022-08-26T15:05:59.342Z,99861.53
2022-08-26T15:08:40.116Z,99864.03
2022-08-26T15:28:26.476Z,99884.25
2022-08-26T15:31:14.500Z,99872.84
2022-08-26T15:34:03.490Z,99877.25
2022-08-26T15:36:45.992Z,99874.03
2022-08-26T15:39:32.505Z,99882.56
2022-08-26T15:42:12.862Z,99868.78
2022-08-26T15:44:59.471Z,99860.22
2022-08-26T15:48:00.979Z,99870.44
2022-08-26T15:50:46.448Z,99868.84
2022-08-26T15:53:36.433Z,99869.25
2022-08-26T15:56:23.496Z,99875.19
2022-08-26T15:59:06.325Z,99881.25
2022-08-26T16:01:53.508Z,99880.81
2022-08-26T16:04:33.822Z,99876.97
2022-08-26T16:07:20.402Z,99878.56
2022-08-26T16:10:00.977Z,99881.03
2022-08-26T16:12:47.431Z,99878.84
2022-08-26T16:15:28.012Z,99888.88
2022-08-26T16:18:15.449Z,99886.94
2022-08-26T16:21:13.761Z,99896.06
2022-08-26T16:23:54.415Z,99885.31
2022-08-26T16:26:51.464Z,99893.75
2022-08-26T16:29:32.580Z,99895.81
2022-08-26T16:32:19.405Z,99905.75
2022-08-26T16:35:06.438Z,99899.44
2022-08-26T16:37:54.438Z,99897.50
2022-08-26T16:40:42.437Z,99897.81
2022-08-26T16:43:22.562Z,99887.06
2022-08-26T16:46:12.502Z,99897.84
2022-08-26T16:48:52.573Z,99906.81
2022-08-26T16:51:40.412Z,99902.16
2022-08-26T16:54:20.525Z,99918.72
2022-08-26T16:57:08.384Z,99922.44
2022-08-26T16:59:48.615Z,99922.59
2022-08-26T17:02:35.504Z,99935.63
2022-08-26T17:05:23.394Z,99944.97
2022-08-26T17:08:11.583Z,99948.19
2022-08-26T17:10:51.701Z,99941.75
2022-08-26T17:13:42.419Z,99948.22
2022-08-26T17:16:26.616Z,99964.16
2022-08-26T17:19:14.381Z,99964.16
2022-08-26T17:22:01.401Z,99966.25
2022-08-26T17:24:52.341Z,99969.69
2022-08-26T17:27:40.417Z,99977.56
2022-08-26T17:30:22.557Z,99973.09
2022-08-26T17:33:10.845Z,99977.66
2022-08-26T17:35:51.815Z,99966.81
2022-08-26T17:38:39.352Z,99977.06
2022-08-26T17:41:19.809Z,99973.19
2022-08-26T17:44:06.384Z,99967.94
2022-08-26T17:46:53.460Z,99971.22
2022-08-26T17:49:33.447Z,99969.63
2022-08-26T17:52:21.365Z,99972.47
2022-08-26T17:55:08.325Z,99975.72
2022-08-26T17:57:55.349Z,99974.50
2022-08-26T18:00:42.363Z,99982.16
2022-08-26T18:03:30.343Z,99987.63
2022-08-26T18:06:15.500Z,99994.06
2022-08-26T18:09:02.304Z,99994.06
2022-08-26T18:11:42.408Z,99994.94
2022-08-26T18:14:29.321Z,99999.72
2022-08-26T18:17:17.528Z,99995.38
2022-08-26T18:20:06.382Z,99997.56
2022-08-26T18:22:53.293Z,99994.66
2022-08-26T18:25:40.324Z,99998.28
2022-08-26T18:28:34.329Z,99996.91
2022-08-26T18:31:15.538Z,99999.97
2022-08-26T18:34:02.313Z,99985.78
2022-08-26T18:36:50.268Z,99994.50
2022-08-26T18:39:37.312Z,99991.84
2022-08-26T18:42:24.446Z,99996.75
2022-08-26T18:45:04.307Z,99986.78
2022-08-26T18:47:51.325Z,99978.72
2022-08-26T18:50:31.425Z,99976.06
2022-08-26T18:53:18.308Z,99975.09
2022-08-26T18:56:05.319Z,99979.81
2022-08-26T18:58:45.993Z,99994.53
2022-08-26T19:01:33.373Z,99988.88
2022-08-26T19:04:15.371Z,99993.81
2022-08-26T19:07:04.519Z,100002.41
2022-08-26T19:09:44.743Z,99999.00
2022-08-26T19:12:33.281Z,99998.13
2022-08-26T19:15:20.308Z,100003.50
2022-08-26T19:18:07.344Z,100002.50
2022-08-26T19:20:48.149Z,99996.53
2022-08-26T19:23:35.511Z,99992.16
2022-08-26T19:26:30.322Z,99996.72
2022-08-26T19:29:11.301Z,99989.94
2022-08-26T19:31:58.279Z,99989.69
2022-08-26T19:34:45.261Z,99988.81
2022-08-26T19:37:33.525Z,99997.56
2022-08-26T19:40:13.944Z,99990.06
2022-08-26T19:43:01.288Z,99988.75
2022-08-26T19:45:41.716Z,99990.19
2022-08-26T19:48:28.250Z,99989.38
2022-08-26T19:51:15.267Z,99994.38
2022-08-26T19:54:02.280Z,99992.69
2022-08-26T19:56:49.872Z,100001.16
2022-08-26T19:59:29.238Z,99996.16
2022-08-26T20:02:13.091Z,99997.69
2022-08-26T20:05:00.241Z,99992.53
2022-08-26T20:07:48.238Z,99996.47
2022-08-26T20:10:30.401Z,99994.63
2022-08-26T20:13:17.239Z,99987.28
2022-08-26T20:15:57.381Z,99992.84
2022-08-26T20:19:04.197Z,99995.34
2022-08-26T20:21:53.195Z,99983.53
2022-08-26T20:24:35.159Z,99985.09
2022-08-26T20:27:22.232Z,99989.59
2022-08-26T20:30:04.056Z,99996.94
2022-08-26T20:32:53.241Z,99998.91
2022-08-26T20:35:33.789Z,100001.06
2022-08-26T20:38:21.520Z,99999.28
2022-08-26T20:41:08.898Z,99997.44
2022-08-26T20:43:50.226Z,100001.63
2022-08-26T20:46:30.636Z,100000.56
2022-08-26T20:49:18.218Z,99990.19
2022-08-26T20:51:59.656Z,99995.50
2022-08-26T20:54:46.301Z,99990.50
2022-08-26T20:57:36.091Z,99992.59
2022-08-26T21:00:22.761Z,99995.34
2022-08-26T21:03:14.257Z,99998.59
2022-08-26T21:05:54.475Z,99995.78
2022-08-26T21:08:45.739Z,100000.06
2022-08-26T21:11:29.406Z,99986.97
2022-08-26T21:14:18.335Z,99988.38
2022-08-26T21:17:05.246Z,99996.41
2022-08-26T21:19:52.392Z,99984.91
2022-08-26T21:22:41.284Z,99978.44
2022-08-26T21:25:28.281Z,99970.06
2022-08-26T21:28:15.365Z,99966.06
2022-08-26T21:30:55.166Z,99958.88
2022-08-26T21:33:36.342Z,99956.91
2022-08-26T21:36:25.195Z,99961.38
2022-08-26T21:39:10.759Z,99956.06
2022-08-26T21:41:59.132Z,99967.69
2022-08-26T21:44:40.614Z,99960.63
2022-08-26T21:47:27.190Z,99958.56
2022-08-26T21:50:15.160Z,99966.47
2022-08-26T21:52:55.264Z,99966.69
2022-08-26T21:55:43.145Z,99970.09
2022-08-26T21:58:23.294Z,99971.44
2022-08-26T22:01:11.145Z,99975.47
2022-08-26T22:03:52.635Z,99980.66
2022-08-26T22:06:41.165Z,99980.78
2022-08-26T22:09:31.167Z,99982.72
2022-08-26T22:12:19.115Z,99980.41
2022-08-26T22:14:59.461Z,99971.19
2022-08-26T22:17:46.137Z,99980.34
2022-08-26T22:20:33.082Z,99971.84
2022-08-26T22:23:13.546Z,99977.00
2022-08-26T22:26:01.073Z,99969.94
2022-08-26T22:28:58.492Z,99978.47
2022-08-26T22:31:47.099Z,99981.91
2022-08-26T22:34:34.154Z,99982.75
2022-08-26T22:37:21.170Z,99981.41
2022-08-26T22:40:01.296Z,99973.00
2022-08-26T22:42:56.902Z,99977.59
2022-08-26T22:45:40.249Z,99981.53
2022-08-26T22:48:31.099Z,99977.81
2022-08-26T22:51:12.253Z,99973.34
2022-08-26T22:53:59.085Z,99979.72
2022-08-26T22:56:46.141Z,99978.16
2022-08-26T22:59:26.538Z,99978.25
2022-08-26T23:02:13.050Z,99987.06
2022-08-26T23:04:53.576Z,99983.88
2022-08-26T23:07:40.079Z,99984.78
2022-08-26T23:10:20.637Z,99987.59
2022-08-26T23:13:07.045Z,99982.31
2022-08-26T23:15:47.651Z,99989.63
2022-08-26T23:18:34.043Z,99984.78
2022-08-26T23:21:21.286Z,99987.50
2022-08-26T23:24:29.027Z,99988.28
2022-08-26T23:27:23.001Z,99986.44
2022-08-26T23:30:15.999Z,99985.13
2022-08-26T23:32:56.199Z,99975.91
2022-08-26T23:35:43.009Z,99979.16
2022-08-26T23:38:30.038Z,99980.72
2022-08-26T23:41:17.077Z,99975.03
2022-08-26T23:44:05.051Z,99970.19
2022-08-26T23:46:45.459Z,99970.13
2022-08-26T23:49:32.040Z,99971.66
2022-08-26T23:52:31.055Z,99971.59
2022-08-26T23:55:20.025Z,99974.03
2022-08-26T23:58:07.088Z,99969.28
